createdAt,value
2022-12-03T00:02:21.231Z,2.90
2022-12-03T00:04:48.033Z,2.90
2022-12-03T00:07:14.754Z,2.80
2022-12-03T00:09:42.666Z,2.80
2022-12-03T00:12:09.527Z,2.80
2022-12-03T00:14:41.237Z,2.90
2022-12-03T00:17:11.165Z,2.80
2022-12-03T00:19:38.153Z,2.80
2022-12-03T00:22:05.199Z,2.90
2022-12-03T00:24:32.730Z,2.90
2022-12-03T00:26:59.708Z,2.90
2022-12-03T00:29:26.520Z,2.90
2022-12-03T00:32:01.485Z,2.80
2022-12-03T00:34:28.536Z,2.80
2022-12-03T00:36:55.417Z,2.80
2022-12-03T00:39:22.303Z,2.80
2022-12-03T00:41:49.269Z,2.90
2022-12-03T00:44:16.140Z,2.80
2022-12-03T00:46:43.651Z,2.90
2022-12-03T00:49:10.467Z,2.90
2022-12-03T00:51:37.112Z,2.80
2022-12-03T00:54:04.138Z,2.80
2022-12-03T00:56:30.843Z,2.80
2022-12-03T00:58:57.618Z,2.80
2022-12-03T01:01:24.392Z,2.80
2022-12-03T01:03:51.211Z,2.80
2022-12-03T01:06:17.967Z,2.80
2022-12-03T01:08:44.713Z,2.80
2022-12-03T01:11:31.350Z,2.80
2022-12-03T01:13:58.055Z,2.80
2022-12-03T01:16:24.881Z,2.80
2022-12-03T01:18:52.986Z,2.80
2022-12-03T01:21:20.026Z,2.90
2022-12-03T01:23:47.107Z,2.80
2022-12-03T01:26:13.924Z,2.90
2022-12-03T01:28:42.170Z,2.80
2022-12-03T01:31:28.375Z,2.90
2022-12-03T01:33:55.616Z,2.80
2022-12-03T01:36:22.426Z,2.80
2022-12-03T01:38:49.168Z,2.80
2022-12-03T01:41:17.992Z,2.80
2022-12-03T01:43:46.075Z,2.80
2022-12-03T01:46:23.239Z,2.80
2022-12-03T01:48:53.478Z,2.80
2022-12-03T01:51:20.358Z,2.80
2022-12-03T01:53:47.687Z,2.80
2022-12-03T01:56:15.870Z,2.80
2022-12-03T01:58:44.060Z,2.80
2022-12-03T02:01:15.219Z,2.80
2022-12-03T02:03:42.582Z,2.80
2022-12-03T02:06:17.902Z,2.70
2022-12-03T02:08:46.220Z,2.70
2022-12-03T02:11:24.727Z,2.70
2022-12-03T02:13:56.733Z,2.70
2022-12-03T02:16:24.019Z,2.70
2022-12-03T02:18:50.852Z,2.70
2022-12-03T02:21:29.910Z,2.70
2022-12-03T02:24:17.407Z,2.70
2022-12-03T02:26:44.330Z,2.60
2022-12-03T02:29:11.706Z,2.60
2022-12-03T02:31:38.665Z,2.60
2022-12-03T02:34:07.203Z,2.70
2022-12-03T02:36:35.677Z,2.70
2022-12-03T02:39:03.216Z,2.70
2022-12-03T02:41:48.595Z,2.70
2022-12-03T02:44:15.742Z,2.70
2022-12-03T02:46:42.495Z,2.70
2022-12-03T02:49:09.359Z,2.70
2022-12-03T02:51:36.171Z,2.70
2022-12-03T02:54:03.790Z,2.70
2022-12-03T02:56:32.676Z,2.70
2022-12-03T02:59:03.706Z,2.70
2022-12-03T03:01:31.099Z,2.70
2022-12-03T03:03:58.445Z,2.60
2022-12-03T03:06:25.390Z,2.70
2022-12-03T03:08:52.456Z,2.60
2022-12-03T03:11:19.411Z,2.60
2022-12-03T03:13:46.869Z,2.70
2022-12-03T03:16:13.851Z,2.60
2022-12-03T03:18:41.168Z,2.60
2022-12-03T03:21:08.227Z,2.60
2022-12-03T03:23:34.896Z,2.70
2022-12-03T03:26:10.292Z,2.70
2022-12-03T03:28:46.942Z,2.60
2022-12-03T03:31:16.976Z,2.60
2022-12-03T03:33:47.138Z,2.60
2022-12-03T03:36:15.738Z,2.60
2022-12-03T03:38:42.866Z,2.60
2022-12-03T03:41:11.231Z,2.60
2022-12-03T03:43:38.797Z,2.50
2022-12-03T03:46:06.848Z,2.50
2022-12-03T03:48:34.721Z,2.50
2022-12-03T03:51:04.217Z,2.40
2022-12-03T03:53:31.279Z,2.50
2022-12-03T03:55:57.957Z,2.40
2022-12-03T03:58:24.643Z,2.40
2022-12-03T04:00:51.826Z,2.40
2022-12-03T04:03:18.644Z,2.50
2022-12-03T04:05:46.594Z,2.50
2022-12-03T04:08:13.356Z,2.50
2022-12-03T04:10:58.829Z,2.50
2022-12-03T04:13:25.898Z,2.40
2022-12-03T04:15:52.745Z,2.40
2022-12-03T04:18:38.021Z,2.50
2022-12-03T04:21:23.391Z,2.50
2022-12-03T04:23:50.191Z,2.50
2022-12-03T04:26:35.509Z,2.50
2022-12-03T04:29:02.400Z,2.50
2022-12-03T04:31:47.625Z,2.50
2022-12-03T04:34:33.383Z,2.50
2022-12-03T04:37:00.239Z,2.50
2022-12-03T04:39:26.999Z,2.40
2022-12-03T04:41:53.787Z,2.40
2022-12-03T04:44:38.815Z,2.40
2022-12-03T04:47:07.613Z,2.50
2022-12-03T04:49:35.886Z,2.40
2022-12-03T04:52:03.166Z,2.40
2022-12-03T04:54:30.448Z,2.40
2022-12-03T04:56:57.193Z,2.40
2022-12-03T04:59:23.987Z,2.40
2022-12-03T05:01:50.963Z,2.50
2022-12-03T05:04:18.188Z,2.50
2022-12-03T05:06:45.772Z,2.40
2022-12-03T05:09:13.118Z,2.40
2022-12-03T05:11:40.618Z,2.30
2022-12-03T05:14:08.027Z,2.30
2022-12-03T05:16:34.860Z,2.30
2022-12-03T05:19:02.389Z,2.20
2022-12-03T05:21:29.244Z,2.30
2022-12-03T05:23:56.268Z,2.30
2022-12-03T05:26:23.529Z,2.30
2022-12-03T05:28:50.713Z,2.30
2022-12-03T05:31:17.579Z,2.30
2022-12-03T05:33:44.695Z,2.30
2022-12-03T05:36:11.834Z,2.30
2022-12-03T05:38:38.977Z,2.30
2022-12-03T05:41:25.949Z,2.30
2022-12-03T05:43:52.692Z,2.30
2022-12-03T05:46:19.639Z,2.30
2022-12-03T05:48:46.577Z,2.20
2022-12-03T05:51:13.409Z,2.20
2022-12-03T05:53:40.168Z,2.10
2022-12-03T05:56:07.290Z,2.10
2022-12-03T05:58:34.137Z,2.10
2022-12-03T06:01:00.888Z,2.10
2022-12-03T06:03:28.173Z,2.10
2022-12-03T06:05:55.082Z,2.10
2022-12-03T06:08:21.862Z,2.10
2022-12-03T06:10:48.574Z,2.20
2022-12-03T06:13:15.525Z,2.10
2022-12-03T06:15:44.157Z,2.20
2022-12-03T06:18:11.484Z,2.20
2022-12-03T06:20:38.427Z,2.20
2022-12-03T06:23:06.270Z,2.20
2022-12-03T06:25:33.141Z,2.20
2022-12-03T06:28:00.144Z,2.20
2022-12-03T06:30:26.894Z,2.20
2022-12-03T06:32:54.803Z,2.20
2022-12-03T06:35:21.806Z,2.10
2022-12-03T06:37:49.025Z,2.10
2022-12-03T06:40:16.686Z,2.10
2022-12-03T06:42:43.396Z,2.10
2022-12-03T06:45:11.038Z,2.10
2022-12-03T06:47:38.139Z,2.00
2022-12-03T06:50:06.850Z,2.00
2022-12-03T06:52:33.772Z,2.00
2022-12-03T06:55:01.159Z,2.00
2022-12-03T06:57:28.171Z,2.10
2022-12-03T06:59:55.047Z,2.00
2022-12-03T07:02:21.878Z,2.00
2022-12-03T07:04:48.605Z,2.00
2022-12-03T07:07:15.422Z,2.00
2022-12-03T07:09:42.161Z,2.00
2022-12-03T07:12:08.986Z,2.00
2022-12-03T07:14:35.708Z,2.00
2022-12-03T07:17:02.760Z,2.00
2022-12-03T07:19:32.818Z,2.00
2022-12-03T07:22:00.901Z,2.00
2022-12-03T07:24:27.680Z,2.00
2022-12-03T07:26:54.748Z,2.00
2022-12-03T07:29:21.467Z,2.00
2022-12-03T07:31:48.836Z,2.00
2022-12-03T07:34:15.688Z,2.00
2022-12-03T07:36:42.541Z,1.90
2022-12-03T07:39:09.361Z,1.90
2022-12-03T07:41:36.102Z,2.00
2022-12-03T07:44:02.999Z,2.00
2022-12-03T07:46:29.879Z,2.00
2022-12-03T07:48:56.662Z,2.00
2022-12-03T07:51:28.833Z,2.00
2022-12-03T07:53:58.621Z,2.00
2022-12-03T07:56:25.593Z,2.10
2022-12-03T07:58:52.323Z,2.00
2022-12-03T08:01:19.196Z,2.10
2022-12-03T08:03:46.289Z,2.10
2022-12-03T08:06:12.962Z,2.10
2022-12-03T08:08:39.839Z,2.10
2022-12-03T08:11:06.707Z,2.10
2022-12-03T08:13:34.757Z,2.10
2022-12-03T08:16:20.576Z,2.10
2022-12-03T08:18:49.687Z,2.00
2022-12-03T08:21:19.999Z,2.00
2022-12-03T08:23:47.068Z,2.00
2022-12-03T08:26:23.479Z,2.00
2022-12-03T08:28:51.492Z,2.00
2022-12-03T08:31:32.343Z,2.00
2022-12-03T08:34:18.613Z,2.10
2022-12-03T08:36:46.617Z,2.20
2022-12-03T08:39:23.415Z,2.20
2022-12-03T08:42:14.699Z,2.20
2022-12-03T08:44:41.589Z,2.20
2022-12-03T08:47:23.157Z,2.10
2022-12-03T08:50:13.634Z,2.20
2022-12-03T08:52:40.426Z,2.20
2022-12-03T08:55:37.239Z,2.10
2022-12-03T08:58:40.070Z,2.20
2022-12-03T09:01:13.328Z,2.10
2022-12-03T09:03:49.931Z,2.10
2022-12-03T09:06:16.818Z,2.10
2022-12-03T09:08:43.595Z,2.10
2022-12-03T09:11:10.484Z,2.20
2022-12-03T09:13:37.399Z,2.20
2022-12-03T09:16:04.384Z,2.20
2022-12-03T09:18:31.477Z,2.20
2022-12-03T09:21:00.704Z,2.30
2022-12-03T09:23:27.647Z,2.30
2022-12-03T09:25:54.476Z,2.30
2022-12-03T09:28:21.356Z,2.30
2022-12-03T09:30:48.130Z,2.30
2022-12-03T09:33:14.875Z,2.30
2022-12-03T09:35:41.752Z,2.30
2022-12-03T09:38:08.461Z,2.30
2022-12-03T09:40:35.386Z,2.30
2022-12-03T09:43:04.461Z,2.40
2022-12-03T09:45:31.519Z,2.30
2022-12-03T09:48:00.318Z,2.30
2022-12-03T09:50:27.609Z,2.30
2022-12-03T09:52:57.034Z,2.40
2022-12-03T09:55:26.757Z,2.40
2022-12-03T09:57:55.063Z,2.50
2022-12-03T10:00:27.717Z,2.50
2022-12-03T10:03:01.289Z,2.50
2022-12-03T10:05:29.364Z,2.40
2022-12-03T10:08:04.441Z,2.40
2022-12-03T10:10:31.495Z,2.40
2022-12-03T10:12:58.692Z,2.40
2022-12-03T10:15:25.619Z,2.50
2022-12-03T10:17:54.648Z,2.60
2022-12-03T10:20:23.854Z,2.50
2022-12-03T10:22:50.660Z,2.60
2022-12-03T10:25:22.729Z,2.70
2022-12-03T10:28:01.341Z,2.70
2022-12-03T10:30:29.275Z,2.80
2022-12-03T10:32:58.335Z,2.80
2022-12-03T10:35:41.426Z,2.70
2022-12-03T10:38:20.080Z,2.70
2022-12-03T10:40:47.044Z,2.70
2022-12-03T10:43:16.551Z,2.70
2022-12-03T10:45:44.855Z,2.70
2022-12-03T10:48:27.257Z,2.70
2022-12-03T10:51:14.228Z,2.70
2022-12-03T10:53:41.841Z,2.70
2022-12-03T10:56:14.993Z,2.70
2022-12-03T10:58:41.981Z,2.70
2022-12-03T11:01:29.205Z,2.60
2022-12-03T11:04:01.018Z,2.60
2022-12-03T11:06:31.475Z,2.50
2022-12-03T11:09:02.679Z,2.50
2022-12-03T11:11:33.828Z,2.50
2022-12-03T11:14:03.617Z,2.60
2022-12-03T11:16:39.656Z,2.70
2022-12-03T11:19:16.357Z,2.70
2022-12-03T11:22:05.005Z,2.70
2022-12-03T11:24:33.227Z,2.70
2022-12-03T11:27:00.202Z,2.70
2022-12-03T11:29:47.621Z,2.70
2022-12-03T11:32:59.693Z,2.70
2022-12-03T11:35:34.579Z,2.80
2022-12-03T11:38:52.176Z,2.80
2022-12-03T11:41:32.128Z,2.80
2022-12-03T11:44:02.119Z,2.80
2022-12-03T11:46:36.519Z,2.80
2022-12-03T11:49:37.968Z,2.80
2022-12-03T11:52:20.210Z,2.80
2022-12-03T11:54:51.115Z,2.70
2022-12-03T11:57:38.800Z,2.70
2022-12-03T12:00:08.774Z,2.70
2022-12-03T12:02:43.878Z,2.70
2022-12-03T12:05:19.652Z,2.70
2022-12-03T12:07:48.412Z,2.70
2022-12-03T12:10:39.179Z,2.70
2022-12-03T12:13:06.670Z,2.70
2022-12-03T12:15:35.111Z,2.70
2022-12-03T12:18:37.208Z,2.70
2022-12-03T12:21:42.950Z,2.80
2022-12-03T12:24:45.819Z,2.70
2022-12-03T12:27:21.971Z,2.70
2022-12-03T12:29:58.223Z,2.80
2022-12-03T12:32:28.061Z,2.80
2022-12-03T12:35:00.610Z,2.70
2022-12-03T12:37:27.636Z,2.70
2022-12-03T12:39:57.343Z,2.70
2022-12-03T12:42:39.179Z,2.70
2022-12-03T12:45:15.157Z,2.70
2022-12-03T12:47:49.359Z,2.70
2022-12-03T12:50:18.601Z,2.70
2022-12-03T12:52:55.226Z,2.70
2022-12-03T12:55:23.366Z,2.70
2022-12-03T12:57:51.221Z,2.70
2022-12-03T13:00:23.397Z,2.70
2022-12-03T13:02:56.650Z,2.70
2022-12-03T13:05:27.020Z,2.70
2022-12-03T13:07:54.811Z,2.70
2022-12-03T13:10:30.469Z,2.70
2022-12-03T13:13:23.433Z,2.60
2022-12-03T13:16:01.117Z,2.60
2022-12-03T13:18:53.251Z,2.70
2022-12-03T13:21:24.459Z,2.70
2022-12-03T13:23:56.096Z,2.70
2022-12-03T13:26:38.822Z,2.70
2022-12-03T13:29:16.227Z,2.80
2022-12-03T13:31:59.219Z,2.80
2022-12-03T13:34:30.962Z,2.80
2022-12-03T13:36:59.552Z,2.80
2022-12-03T13:39:36.851Z,2.80
2022-12-03T13:42:33.436Z,2.70
2022-12-03T13:45:02.554Z,2.70
2022-12-03T13:47:29.417Z,2.70
2022-12-03T13:50:03.284Z,2.60
2022-12-03T13:52:32.649Z,2.60
2022-12-03T13:55:03.256Z,2.60
2022-12-03T13:57:30.056Z,2.70
2022-12-03T13:59:57.102Z,2.70
2022-12-03T14:02:24.189Z,2.70
2022-12-03T14:04:58.454Z,2.70
2022-12-03T14:07:27.073Z,2.70
2022-12-03T14:09:54.152Z,2.70
2022-12-03T14:12:26.781Z,2.70
2022-12-03T14:14:53.742Z,2.70
2022-12-03T14:17:20.833Z,2.60
2022-12-03T14:19:47.640Z,2.60
2022-12-03T14:22:14.632Z,2.60
2022-12-03T14:24:42.132Z,2.60
2022-12-03T14:27:09.053Z,2.60
2022-12-03T14:29:35.751Z,2.60
2022-12-03T14:32:02.602Z,2.70
2022-12-03T14:34:29.365Z,2.60
2022-12-03T14:36:56.502Z,2.70
2022-12-03T14:39:23.402Z,2.70
2022-12-03T14:42:09.023Z,2.70
2022-12-03T14:44:35.883Z,2.70
2022-12-03T14:47:02.782Z,2.70
2022-12-03T14:49:29.770Z,2.70
2022-12-03T14:51:56.579Z,2.70
2022-12-03T14:54:23.995Z,2.60
2022-12-03T14:56:50.764Z,2.60
2022-12-03T14:59:18.523Z,2.60
2022-12-03T15:01:46.772Z,2.60
2022-12-03T15:04:13.992Z,2.60
2022-12-03T15:06:40.680Z,2.60
2022-12-03T15:09:07.514Z,2.60
2022-12-03T15:11:34.640Z,2.60
2022-12-03T15:14:01.399Z,2.60
2022-12-03T15:16:28.490Z,2.60
2022-12-03T15:18:55.359Z,2.60
2022-12-03T15:21:22.079Z,2.60
2022-12-03T15:23:51.182Z,2.60
2022-12-03T15:26:17.997Z,2.60
2022-12-03T15:28:48.276Z,2.50
2022-12-03T15:31:15.520Z,2.50
2022-12-03T15:33:42.452Z,2.50
2022-12-03T15:36:09.716Z,2.50
2022-12-03T15:38:36.583Z,2.50
2022-12-03T15:41:20.873Z,2.50
2022-12-03T15:43:48.582Z,2.50
2022-12-03T15:46:15.519Z,2.50
2022-12-03T15:48:42.604Z,2.40
2022-12-03T15:51:09.450Z,2.40
2022-12-03T15:53:37.060Z,2.40
2022-12-03T15:56:07.709Z,2.40
2022-12-03T15:58:34.918Z,2.40
2022-12-03T16:01:01.801Z,2.40
2022-12-03T16:03:28.912Z,2.40
2022-12-03T16:05:55.956Z,2.40
2022-12-03T16:08:22.977Z,2.30
2022-12-03T16:10:49.823Z,2.30
2022-12-03T16:13:16.621Z,2.30
2022-12-03T16:15:44.327Z,2.30
2022-12-03T16:18:11.565Z,2.30
2022-12-03T16:20:39.265Z,2.30
2022-12-03T16:23:06.166Z,2.30
2022-12-03T16:25:33.085Z,2.30
2022-12-03T16:27:59.922Z,2.30
2022-12-03T16:30:26.968Z,2.30
2022-12-03T16:32:53.830Z,2.20
2022-12-03T16:35:20.563Z,2.20
2022-12-03T16:37:47.583Z,2.20
2022-12-03T16:40:14.537Z,2.20
2022-12-03T16:42:41.417Z,2.20
2022-12-03T16:45:09.043Z,2.20
2022-12-03T16:47:36.362Z,2.20
2022-12-03T16:50:05.197Z,2.20
2022-12-03T16:52:32.130Z,2.20
2022-12-03T16:54:59.008Z,2.20
2022-12-03T16:57:30.361Z,2.20
2022-12-03T17:00:00.713Z,2.20
2022-12-03T17:02:27.774Z,2.20
2022-12-03T17:04:54.712Z,2.20
2022-12-03T17:07:21.543Z,2.20
2022-12-03T17:09:48.801Z,2.10
2022-12-03T17:12:15.669Z,2.20
2022-12-03T17:14:42.528Z,2.10
2022-12-03T17:17:09.273Z,2.20
2022-12-03T17:19:36.209Z,2.10
2022-12-03T17:22:03.129Z,2.10
2022-12-03T17:24:29.897Z,2.10
2022-12-03T17:26:56.668Z,2.10
2022-12-03T17:29:23.445Z,2.10
2022-12-03T17:31:50.378Z,2.10
2022-12-03T17:34:17.235Z,2.10
2022-12-03T17:36:43.932Z,2.10
2022-12-03T17:39:10.761Z,2.10
2022-12-03T17:41:37.487Z,2.10
2022-12-03T17:44:09.665Z,2.20
2022-12-03T17:46:37.827Z,2.20
2022-12-03T17:49:04.602Z,2.20
2022-12-03T17:51:31.411Z,2.10
2022-12-03T17:53:58.128Z,2.10
2022-12-03T17:56:25.452Z,2.10
2022-12-03T17:58:52.401Z,2.10
2022-12-03T18:01:19.323Z,2.10
2022-12-03T18:03:46.268Z,2.10
2022-12-03T18:06:13.249Z,2.00
2022-12-03T18:08:40.080Z,2.10
2022-12-03T18:11:06.918Z,2.00
2022-12-03T18:13:33.788Z,2.10
2022-12-03T18:16:00.787Z,2.10
2022-12-03T18:18:27.674Z,2.10
2022-12-03T18:20:54.788Z,2.00
2022-12-03T18:23:21.678Z,2.00
2022-12-03T18:25:48.575Z,2.00
2022-12-03T18:28:15.321Z,2.10
2022-12-03T18:30:45.036Z,2.00
2022-12-03T18:33:15.586Z,2.00
2022-12-03T18:35:43.152Z,2.00
2022-12-03T18:38:15.664Z,2.10
2022-12-03T18:40:44.108Z,2.00
2022-12-03T18:43:15.609Z,2.00
2022-12-03T18:45:43.201Z,2.00
2022-12-03T18:48:14.464Z,2.00
2022-12-03T18:50:42.243Z,2.00
2022-12-03T18:53:12.818Z,1.90
2022-12-03T18:55:40.699Z,1.90
2022-12-03T18:58:07.946Z,1.90
2022-12-03T19:00:35.800Z,1.90
2022-12-03T19:03:04.184Z,1.90
2022-12-03T19:05:34.290Z,1.90
2022-12-03T19:08:01.766Z,1.90
2022-12-03T19:10:28.787Z,1.90
2022-12-03T19:12:55.776Z,2.00
2022-12-03T19:15:22.911Z,1.90
2022-12-03T19:17:50.378Z,1.90
2022-12-03T19:20:17.427Z,1.90
2022-12-03T19:22:44.141Z,1.90
2022-12-03T19:25:11.018Z,1.90
2022-12-03T19:27:37.914Z,2.00
2022-12-03T19:30:05.673Z,1.90
2022-12-03T19:32:34.738Z,2.00
2022-12-03T19:35:04.939Z,2.00
2022-12-03T19:37:33.752Z,2.00
2022-12-03T19:40:00.970Z,2.00
2022-12-03T19:42:27.899Z,2.00
2022-12-03T19:44:54.887Z,2.00
2022-12-03T19:47:24.656Z,2.00
2022-12-03T19:49:53.641Z,1.90
2022-12-03T19:52:20.882Z,1.90
2022-12-03T19:54:47.930Z,1.90
2022-12-03T19:57:19.726Z,1.90
2022-12-03T19:59:49.831Z,2.00
2022-12-03T20:02:16.875Z,1.90
2022-12-03T20:04:43.887Z,1.90
2022-12-03T20:07:10.664Z,1.90
2022-12-03T20:09:37.561Z,1.90
2022-12-03T20:12:04.647Z,2.00
2022-12-03T20:14:31.531Z,2.00
2022-12-03T20:16:58.434Z,2.00
2022-12-03T20:19:25.282Z,2.00
2022-12-03T20:21:52.129Z,2.00
2022-12-03T20:24:19.544Z,2.00
2022-12-03T20:26:46.362Z,2.00
2022-12-03T20:29:13.579Z,2.00
2022-12-03T20:31:40.547Z,2.00
2022-12-03T20:34:07.613Z,2.00
2022-12-03T20:36:34.397Z,2.00
2022-12-03T20:39:05.386Z,2.00
2022-12-03T20:41:35.105Z,2.00
2022-12-03T20:44:03.080Z,2.00
2022-12-03T20:46:31.354Z,1.90
2022-12-03T20:48:58.581Z,1.90
2022-12-03T20:51:29.681Z,1.90
2022-12-03T20:53:57.775Z,1.90
2022-12-03T20:56:27.994Z,1.90
2022-12-03T20:58:54.829Z,1.90
2022-12-03T21:01:24.151Z,1.90
2022-12-03T21:03:55.336Z,1.90
2022-12-03T21:06:24.018Z,1.90
2022-12-03T21:08:54.075Z,1.90
2022-12-03T21:11:24.144Z,1.90
2022-12-03T21:13:51.681Z,1.90
2022-12-03T21:16:39.299Z,1.90
2022-12-03T21:19:09.037Z,1.90
2022-12-03T21:21:36.369Z,1.80
2022-12-03T21:24:03.516Z,1.90
2022-12-03T21:26:30.298Z,1.80
2022-12-03T21:28:57.325Z,1.80
2022-12-03T21:31:26.655Z,1.80
2022-12-03T21:33:55.198Z,1.90
2022-12-03T21:36:22.524Z,1.80
2022-12-03T21:38:53.312Z,1.90
2022-12-03T21:41:20.037Z,1.90
2022-12-03T21:43:46.894Z,1.90
2022-12-03T21:47:12.407Z,1.80
2022-12-03T21:49:04.111Z,1.80
2022-12-03T21:51:30.993Z,1.80
2022-12-03T21:53:57.853Z,1.90
2022-12-03T21:56:24.682Z,1.90
2022-12-03T21:58:51.448Z,1.80
2022-12-03T22:01:21.578Z,1.80
2022-12-03T22:03:48.827Z,1.80
2022-12-03T22:06:18.168Z,1.80
2022-12-03T22:08:45.382Z,1.80
2022-12-03T22:11:21.636Z,1.80
2022-12-03T22:13:49.283Z,1.90
2022-12-03T22:16:19.097Z,1.80
2022-12-03T22:18:46.226Z,1.80
2022-12-03T22:21:16.109Z,1.90
2022-12-03T22:23:42.988Z,1.80
2022-12-03T22:26:13.165Z,1.80
2022-12-03T22:28:43.924Z,1.80
2022-12-03T22:31:10.887Z,1.80
2022-12-03T22:33:38.200Z,1.80
2022-12-03T22:36:07.933Z,1.80
2022-12-03T22:38:35.102Z,1.80
2022-12-03T22:41:06.131Z,1.80
2022-12-03T22:43:33.863Z,1.80
2022-12-03T22:46:00.727Z,1.80
2022-12-03T22:48:27.693Z,1.80
2022-12-03T22:50:54.469Z,1.80
2022-12-03T22:53:21.567Z,1.80
2022-12-03T22:55:59.833Z,1.80
2022-12-03T22:58:28.455Z,1.80
2022-12-03T23:01:01.233Z,1.80
2022-12-03T23:03:29.854Z,1.80
2022-12-03T23:05:56.769Z,1.80
2022-12-03T23:08:23.729Z,1.80
2022-12-03T23:10:52.303Z,1.80
2022-12-03T23:13:19.886Z,1.90
2022-12-03T23:15:48.849Z,1.90
2022-12-03T23:18:16.548Z,1.80
2022-12-03T23:20:45.909Z,1.90
2022-12-03T23:23:13.095Z,1.90
2022-12-03T23:25:40.403Z,1.80
2022-12-03T23:28:07.859Z,1.80
2022-12-03T23:30:38.926Z,1.90
2022-12-03T23:33:06.840Z,1.80
2022-12-03T23:35:33.856Z,1.80
2022-12-03T23:38:00.635Z,1.80
2022-12-03T23:40:27.485Z,1.80
2022-12-03T23:42:54.337Z,1.80
2022-12-03T23:45:20.989Z,1.80
2022-12-03T23:47:47.821Z,1.80
2022-12-03T23:50:14.731Z,1.80
2022-12-03T23:52:41.618Z,1.90
2022-12-03T23:55:08.664Z,1.90
2022-12-03T23:57:35.636Z,1.80
